TimeEDT,TemperatureF,Dew PointF,Humidity,Sea Level PressureIn,VisibilityMPH,Wind Direction,Wind SpeedMPH,Gust SpeedMPH,PrecipitationIn,Events,Conditions,WindDirDegrees,DateUTC
12:51 AM,35.1,10.9,37,30.10,10.0,NE,3.5,-,N/A,,Overcast,40,2014-03-25 04:51:00
1:51 AM,34.0,16.0,48,30.08,10.0,ENE,5.8,-,N/A,,Overcast,70,2014-03-25 05:51:00
2:51 AM,30.0,24.1,79,30.07,4.0,North,4.6,-,0.00,Snow,Light Snow,360,2014-03-25 06:51:00
3:14 AM,28.9,26.1,89,30.05,2.5,North,5.8,-,0.00,Snow,Light Snow,350,2014-03-25 07:14:00
3:28 AM,28.9,26.1,89,30.05,3.0,NNW,4.6,-,0.00,Snow,Light Snow,340,2014-03-25 07:28:00
3:51 AM,28.9,27.0,92,30.06,5.0,North,5.8,-,0.00,Snow,Light Snow,350,2014-03-25 07:51:00
4:13 AM,28.0,27.0,96,30.03,2.5,North,4.6,-,0.00,Snow,Light Snow,10,2014-03-25 08:13:00
4:33 AM,28.0,26.1,92,30.02,2.5,NE,4.6,-,0.01,Snow,Light Snow,40,2014-03-25 08:33:00
4:51 AM,28.0,27.0,96,30.03,1.2,NE,4.6,-,0.01,Snow,Light Snow,40,2014-03-25 08:51:00
5:08 AM,28.0,27.0,96,30.01,1.8,NE,3.5,-,0.01,Snow,Light Snow,50,2014-03-25 09:08:00
5:14 AM,28.0,27.0,96,30.01,2.5,ENE,3.5,-,0.01,Snow,Light Snow,60,2014-03-25 09:14:00
5:18 AM,28.0,27.0,96,30.01,3.0,NE,4.6,-,0.01,Snow,Light Snow,40,2014-03-25 09:18:00
5:33 AM,28.0,27.0,96,30.00,2.5,NNE,5.8,-,0.01,Snow,Light Snow,30,2014-03-25 09:33:00
5:51 AM,28.0,27.0,96,30.02,2.0,ENE,4.6,-,0.01,Snow,Light Snow,70,2014-03-25 09:51:00
6:51 AM,28.0,26.1,92,30.01,2.0,NE,3.5,-,0.01,Snow,Light Snow,40,2014-03-25 10:51:00
7:25 AM,28.0,27.0,96,29.99,2.0,NE,3.5,-,0.01,Snow,Light Snow,40,2014-03-25 11:25:00
7:32 AM,28.0,27.0,96,29.99,2.0,ENE,3.5,-,0.01,Snow,Light Snow,70,2014-03-25 11:32:00
7:51 AM,28.0,27.0,96,30.01,1.0,ENE,3.5,-,0.02,Snow,Light Snow,60,2014-03-25 11:51:00
8:51 AM,28.0,27.0,96,30.00,1.2,Calm,Calm,-,0.00,Snow,Light Snow,0,2014-03-25 12:51:00
8:58 AM,28.9,27.0,92,29.98,2.5,Calm,Calm,-,0.00,Snow,Light Snow,0,2014-03-25 12:58:00
9:04 AM,28.9,27.0,92,29.98,3.0,Calm,Calm,-,0.00,Snow,Light Snow,0,2014-03-25 13:04:00
9:12 AM,28.9,27.0,92,29.98,2.5,NNE,3.5,-,0.00,Snow,Light Snow,20,2014-03-25 13:12:00
9:51 AM,30.0,26.1,85,30.00,2.0,Calm,Calm,-,0.01,Snow,Light Snow,0,2014-03-25 13:51:00
9:58 AM,28.9,27.0,92,29.98,2.5,Variable,3.5,-,0.00,Snow,Light Snow,0,2014-03-25 13:58:00
10:00 AM,30.0,27.0,88,29.98,3.0,Calm,Calm,-,0.00,Snow,Light Snow,0,2014-03-25 14:00:00
10:05 AM,30.0,27.0,88,29.98,2.5,Calm,Calm,-,0.00,Snow,Light Snow,0,2014-03-25 14:05:00
10:09 AM,30.0,27.0,88,29.98,1.8,Calm,Calm,-,0.00,Snow,Light Snow,0,2014-03-25 14:09:00
10:20 AM,30.0,28.0,92,29.98,1.0,NNE,3.5,-,0.00,Snow,Light Snow,20,2014-03-25 14:20:00
10:36 AM,30.9,27.0,85,29.98,2.0,Calm,Calm,-,0.00,Snow,Light Snow,0,2014-03-25 14:36:00
10:46 AM,30.2,26.6,86,29.98,3.0,Calm,Calm,-,0.00,Snow,Light Snow,0,2014-03-25 14:46:00
10:51 AM,30.0,27.0,88,30.00,3.0,Calm,Calm,-,0.00,Snow,Light Snow,0,2014-03-25 14:51:00
11:13 AM,30.9,27.0,85,29.98,1.8,North,3.5,-,0.00,Snow,Light Snow,360,2014-03-25 15:13:00
11:22 AM,32.0,28.0,85,29.98,2.0,NNW,4.6,-,0.00,Snow,Light Snow,330,2014-03-25 15:22:00
11:29 AM,32.0,28.0,85,29.98,1.8,North,4.6,-,0.00,Snow,Light Snow,350,2014-03-25 15:29:00
11:48 AM,32.0,28.4,87,29.98,2.5,North,5.8,-,0.00,Snow,Light Snow,360,2014-03-25 15:48:00
11:51 AM,32.0,28.0,85,30.00,3.0,North,5.8,-,0.00,Snow,Light Snow,350,2014-03-25 15:51:00
12:16 PM,34.0,28.0,79,29.98,10.0,WNW,5.8,-,0.00,,Overcast,300,2014-03-25 16:16:00
12:51 PM,33.1,27.0,78,29.99,6.0,Variable,5.8,-,0.00,,Haze,0,2014-03-25 16:51:00
1:25 PM,34.0,28.9,82,29.96,2.0,North,4.6,-,0.00,Snow,Light Snow,350,2014-03-25 17:25:00
1:31 PM,34.0,28.9,82,29.96,5.0,Calm,Calm,-,0.00,Snow,Light Snow,0,2014-03-25 17:31:00
1:51 PM,35.1,26.1,70,29.97,10.0,Variable,3.5,-,0.00,,Mostly Cloudy,0,2014-03-25 17:51:00
2:27 PM,34.0,28.0,79,29.95,2.0,NNW,10.4,-,0.00,Snow,Light Snow,330,2014-03-25 18:27:00
2:36 PM,34.0,28.0,79,29.95,2.0,NW,6.9,-,0.00,Snow,Light Snow,320,2014-03-25 18:36:00
2:51 PM,34.0,27.0,75,29.97,2.0,West,12.7,19.6,0.00,,Haze,270,2014-03-25 18:51:00
3:00 PM,30.0,28.9,96,29.95,1.0,West,9.2,24.2,0.00,Snow,Light Snow,270,2014-03-25 19:00:00
3:31 PM,35.1,30.0,82,29.94,2.0,Variable,5.8,-,0.00,Snow,Light Snow,0,2014-03-25 19:31:00
3:42 PM,33.1,27.0,78,29.95,2.0,West,11.5,26.5,0.00,Snow,Light Snow,280,2014-03-25 19:42:00
3:51 PM,33.1,28.0,82,29.97,2.0,NW,9.2,-,0.00,Snow,Light Snow,320,2014-03-25 19:51:00
4:23 PM,36.0,26.1,67,29.94,10.0,WNW,9.2,-,0.00,,Mostly Cloudy,300,2014-03-25 20:23:00
4:51 PM,39.0,21.0,49,29.96,10.0,WNW,10.4,21.9,0.00,,Clear,300,2014-03-25 20:51:00
5:51 PM,36.0,23.0,59,29.98,4.0,NW,8.1,21.9,0.00,Snow,Light Snow,320,2014-03-25 21:51:00
6:51 PM,30.0,26.1,85,30.04,1.5,NW,10.4,23.0,0.00,Snow,Light Snow,310,2014-03-25 22:51:00
7:51 PM,30.0,25.0,82,30.07,10.0,NW,11.5,19.6,0.00,,Overcast,310,2014-03-25 23:51:00
8:05 PM,30.0,25.0,82,30.05,2.5,WNW,12.7,20.7,0.00,Snow,Light Snow,300,2014-03-26 00:05:00
8:13 PM,28.9,25.0,85,30.05,1.2,WNW,10.4,20.7,0.00,Snow,Light Snow,290,2014-03-26 00:13:00
8:16 PM,28.9,25.0,85,30.05,2.0,WNW,9.2,-,0.00,Snow,Light Snow,300,2014-03-26 00:16:00
8:34 PM,28.9,25.0,85,30.06,10.0,NW,10.4,16.1,0.00,,Mostly Cloudy,310,2014-03-26 00:34:00
8:51 PM,30.0,21.0,69,30.09,10.0,WNW,9.2,20.7,0.00,,Overcast,300,2014-03-26 00:51:00
9:51 PM,28.0,21.9,78,30.13,10.0,WNW,4.6,-,N/A,,Mostly Cloudy,300,2014-03-26 01:51:00
10:51 PM,28.0,18.0,66,30.15,10.0,WNW,8.1,-,N/A,,Partly Cloudy,300,2014-03-26 02:51:00
11:51 PM,28.0,17.1,63,30.17,9.0,WNW,11.5,21.9,0.00,Snow,Light Snow,300,2014-03-26 03:51:00